Apalachicola, FL

12:37 PM EDT on July 28, 2015 (GMT -0400)
Seafood Workers Task Force Apalachicola Office | | Change Station
CLOSE
Current Station
Personal Weather Station
Location: Apalachicola, FL
Elevation: 43 ft
Nearby Weather Stations
Active Advisory: Heat Advisory

Elev 43 ft 29.73 °N, 85.00 °W | Updated 11 minutes ago

Clear
Clear
104.4 °F
Feels Like 118 °F
N
2.2
Wind Variable Wind from West

Today
High -- | Low -- °F
--% Chance of Precip.
Yesterday
High -- | Low -- °F
Precip. -- in
6:57 AM 8:35 PM
Waxing Gibbous, 90% visible
Pressure 29.97 in
Visibility 10.0 miles
Clouds Clear
Heat Index 118 °F
Dew Point 74 °F
Humidity 38%
Rainfall 0.00 in
Snow Depth Not available.
UV 12 out of 12
Pollen 3.70 out of 12
Air Quality Not available.
Flu Activity Not available.
METAR KAAF 281553Z AUTO 03007KT 10SM CLR 34/23 A2997 RMK AO2 SLP149 T03440228

More Conditions Fewer Conditions

Pressure 29.97 in
Visibility 10.0 miles
Clouds Clear
Heat Index 118 °F
Dew Point 74 °F
Humidity 38%
Rainfall 0.00 in
Snow Depth Not available.
UV 12 out of 12
Pollen 3.70 out of 12
Air Quality Not available.
Flu Activity Not available.
METAR KAAF 281553Z AUTO 03007KT 10SM CLR 34/23 A2997 RMK AO2 SLP149 T03440228

More Conditions Fewer Conditions

10-Day Weather Forecast

×

Almanac

Astronomy

Jul. 28, 2015 Rise Set
Actual Time
Civil Twilight
Nautical Twilight
Astronomical Twilight
Moon
Length of Visible Light
Length of Day
Tomorrow will be .
, % of the Moon is Illuminated

Today's Extremes

State Highs State Lows

Community

WunderPhotos

Upload Photos

1,841,886 photos uploaded!

WunderBlogs® & News

Nearby

Air Quality

  Air Quality AQ Index Pollutant
Not available.

Snow Depth

Station Depth Elevation

Earthquake Activity

City Distance Mag. Time & Date
Minimum magnitude displayed is 2.5.

Coastal Water Temperatures

Place Temperature

Stations

Nearby Weather Stations

Station Location Temp. Windchill Dew Point Humidity Wind Precip. Elev Updated Type
                   
Heat Advisory
Statement as of 8:57 AM CDT on July 28, 2015

... Heat advisory in effect from 1 PM EDT /noon CDT/ this
afternoon to 7 PM EDT /6 PM CDT/ this evening...

The National Weather Service in Tallahassee has issued a heat
advisory... which is in effect from 1 PM EDT /noon CDT/ this
afternoon to 7 PM EDT /6 PM CDT/ this evening.

* Temperature: highs 95 to 100 degrees.

* Heat index: maximum values around 110 degrees.

Precautionary/preparedness actions...

Take extra precautions... if you work or spend time outside. When
possible... reschedule strenuous activities to early morning or
evening. Know the signs and symptoms of heat exhaustion and heat
stroke. Wear light weight and loose fitting clothing when
possible and drink plenty of water.



Al